createdAt,value
2022-11-18T00:00:23.506Z,76.46
2022-11-18T00:02:29.653Z,76.37
2022-11-18T00:04:35.479Z,75.92
2022-11-18T00:06:42.457Z,76.05
2022-11-18T00:08:50.887Z,76.21
2022-11-18T00:10:59.337Z,75.71
2022-11-18T00:13:18.258Z,75.76
2022-11-18T00:15:28.953Z,75.26
2022-11-18T00:17:37.191Z,75.70
2022-11-18T00:19:44.106Z,75.91
2022-11-18T00:21:50.023Z,75.91
2022-11-18T00:23:55.855Z,75.60
2022-11-18T00:26:09.853Z,75.71
2022-11-18T00:28:15.620Z,75.59
2022-11-18T00:30:23.065Z,76.07
2022-11-18T00:32:29.631Z,75.49
2022-11-18T00:34:35.425Z,75.40
2022-11-18T00:36:43.047Z,75.52
2022-11-18T00:38:49.585Z,76.18
2022-11-18T00:41:03.161Z,75.94
2022-11-18T00:43:08.913Z,76.32
2022-11-18T00:45:15.585Z,75.65
2022-11-18T00:47:21.397Z,75.63
2022-11-18T00:49:28.042Z,75.86
2022-11-18T00:51:34.538Z,76.16
2022-11-18T00:53:40.249Z,76.32
2022-11-18T00:55:46.269Z,77.03
2022-11-18T00:57:52.923Z,77.07
2022-11-18T01:00:09.210Z,76.78
2022-11-18T01:02:33.374Z,77.00
2022-11-18T01:04:39.976Z,76.82
2022-11-18T01:06:45.692Z,76.80
2022-11-18T01:08:51.484Z,76.51
2022-11-18T01:11:18.058Z,76.86
2022-11-18T01:13:24.048Z,77.60
2022-11-18T01:15:32.527Z,77.58
2022-11-18T01:17:45.887Z,78.21
2022-11-18T01:19:51.856Z,78.17
2022-11-18T01:22:09.236Z,78.02
2022-11-18T01:24:22.288Z,77.43
2022-11-18T01:26:28.020Z,78.04
2022-11-18T01:28:33.829Z,78.40
2022-11-18T01:30:44.868Z,78.53
2022-11-18T01:48:08.806Z,79.37
2022-11-18T01:50:19.639Z,79.33
2022-11-18T01:52:26.916Z,79.95
2022-11-18T01:54:39.404Z,80.24
2022-11-18T01:56:53.175Z,80.56
2022-11-18T01:59:08.550Z,80.75
2022-11-18T02:01:17.155Z,80.69
2022-11-18T02:03:33.524Z,81.09
2022-11-18T02:05:46.127Z,81.34
2022-11-18T02:07:54.222Z,81.29
2022-11-18T02:10:11.774Z,81.34
2022-11-18T02:15:14.480Z,79.70
2022-11-18T02:17:44.285Z,79.36
2022-11-18T02:20:21.893Z,79.17
2022-11-18T02:23:00.898Z,79.36
2022-11-18T02:25:24.973Z,79.10
2022-11-18T02:28:20.627Z,78.85
2022-11-18T02:30:29.077Z,77.80
2022-11-18T02:32:45.049Z,77.69
2022-11-18T02:35:05.546Z,77.35
2022-11-18T02:37:25.115Z,77.50
2022-11-18T02:39:41.371Z,76.89
2022-11-18T02:41:52.666Z,77.10
2022-11-18T02:44:07.663Z,77.07
2022-11-18T02:46:26.920Z,76.99
2022-11-18T04:35:23.517Z,78.09
2022-11-18T04:37:30.339Z,78.82
2022-11-18T04:39:36.381Z,79.46
2022-11-18T04:41:54.457Z,79.50
2022-11-18T04:44:13.356Z,79.64
2022-11-18T04:46:19.251Z,80.01
2022-11-18T04:48:27.034Z,79.60
2022-11-18T04:50:42.866Z,79.36
2022-11-18T04:52:48.586Z,79.00
2022-11-18T04:54:54.257Z,79.44
2022-11-18T04:57:01.438Z,80.05
2022-11-18T04:59:08.895Z,80.50
2022-11-18T05:01:14.674Z,80.73
2022-11-18T05:03:21.208Z,80.86
2022-11-18T05:05:26.935Z,80.77
2022-11-18T05:07:35.252Z,80.96
2022-11-18T05:09:41.807Z,80.79
2022-11-18T05:12:01.033Z,81.01
2022-11-18T05:14:06.792Z,81.44
2022-11-18T05:16:13.321Z,81.50
2022-11-18T05:18:19.185Z,81.53
2022-11-18T05:20:25.014Z,81.15
2022-11-18T05:22:40.854Z,81.20
2022-11-18T05:24:49.952Z,80.89
2022-11-18T05:26:56.168Z,81.04
2022-11-18T05:29:09.909Z,81.35
2022-11-18T05:31:19.540Z,81.45
2022-11-18T05:33:32.768Z,80.76
2022-11-18T05:35:40.626Z,80.21
2022-11-18T05:37:48.966Z,79.76
2022-11-18T05:39:54.778Z,80.21
2022-11-18T05:42:19.888Z,80.03
2022-11-18T05:44:28.539Z,80.67
2022-11-18T05:46:35.599Z,80.20
2022-11-18T05:48:42.253Z,80.38
2022-11-18T05:50:54.488Z,80.57
2022-11-18T05:53:02.966Z,80.47
2022-11-18T05:55:12.275Z,80.31
2022-11-18T05:57:18.107Z,80.24
2022-11-18T05:59:24.595Z,79.73
2022-11-18T06:01:40.563Z,79.95
2022-11-18T06:03:46.913Z,79.62
2022-11-18T06:05:56.200Z,79.53
2022-11-18T06:08:12.751Z,79.96
2022-11-18T06:10:27.683Z,79.75
2022-11-18T06:12:48.444Z,79.81
2022-11-18T06:15:03.892Z,80.42
2022-11-18T06:17:21.963Z,80.09
2022-11-18T06:19:34.956Z,80.63
2022-11-18T06:21:41.758Z,80.98
2022-11-18T06:23:51.311Z,80.62
2022-11-18T06:26:02.468Z,80.45
2022-11-18T06:28:09.309Z,80.47
2022-11-18T06:30:17.201Z,81.31
2022-11-18T06:32:29.610Z,80.50
2022-11-18T06:34:41.247Z,79.04
2022-11-18T06:36:47.716Z,79.24
2022-11-18T06:38:56.131Z,78.54
2022-11-18T06:41:09.599Z,79.48
2022-11-18T06:43:28.564Z,79.90
2022-11-18T06:45:34.609Z,80.30
2022-11-18T06:47:38.691Z,79.78
2022-11-18T06:49:44.502Z,79.35
2022-11-18T06:51:50.296Z,79.50
2022-11-18T06:53:59.789Z,79.46
2022-11-18T06:56:20.053Z,79.88
2022-11-18T06:58:25.745Z,79.13
2022-11-18T07:00:32.378Z,79.24
2022-11-18T07:02:39.930Z,78.89
2022-11-18T07:04:45.651Z,79.49
2022-11-18T07:06:52.499Z,79.85
2022-11-18T07:09:03.852Z,79.76
2022-11-18T07:11:14.781Z,79.85
2022-11-18T07:13:21.347Z,79.79
2022-11-18T07:15:42.489Z,79.29
2022-11-18T07:17:48.171Z,79.61
2022-11-18T07:19:56.525Z,79.91
2022-11-18T07:22:02.470Z,80.05
2022-11-18T07:24:18.729Z,79.82
2022-11-18T07:26:26.244Z,79.57
2022-11-18T07:28:33.745Z,79.63
2022-11-18T07:30:39.494Z,80.19
2022-11-18T07:32:46.023Z,80.52
2022-11-18T07:34:55.626Z,80.71
2022-11-18T07:37:01.345Z,80.12
2022-11-18T07:39:11.569Z,79.64
2022-11-18T07:41:20.072Z,80.53
2022-11-18T07:43:25.939Z,80.92
2022-11-18T07:45:32.647Z,80.78
2022-11-18T07:47:38.408Z,80.31
2022-11-18T07:49:44.227Z,80.39
2022-11-18T07:51:50.769Z,80.56
2022-11-18T07:53:57.507Z,80.47
2022-11-18T07:56:13.495Z,79.74
2022-11-18T07:58:20.052Z,79.71
2022-11-18T08:00:26.434Z,79.77
2022-11-18T08:02:32.360Z,79.63
2022-11-18T08:04:40.979Z,79.89
2022-11-18T08:06:46.751Z,79.88
2022-11-18T08:08:52.556Z,79.45
2022-11-18T08:11:00.104Z,78.78
2022-11-18T08:13:08.510Z,78.76
2022-11-18T08:15:20.638Z,78.89
2022-11-18T08:17:27.304Z,79.36
2022-11-18T08:19:37.516Z,80.15
2022-11-18T08:21:43.279Z,79.82
2022-11-18T08:23:54.205Z,78.85
2022-11-18T08:26:07.092Z,79.06
2022-11-18T08:28:17.704Z,79.23
2022-11-18T08:30:24.655Z,79.94
2022-11-18T08:32:30.780Z,79.81
2022-11-18T08:34:36.716Z,79.72
2022-11-18T08:36:43.773Z,78.61
2022-11-18T08:38:49.440Z,79.07
2022-11-18T08:40:55.895Z,79.41
2022-11-18T08:43:02.391Z,78.37
2022-11-18T08:45:12.290Z,77.90
2022-11-18T08:47:20.875Z,78.93
2022-11-18T08:49:32.235Z,78.35
2022-11-18T08:51:38.255Z,78.75
2022-11-18T08:53:43.970Z,78.44
2022-11-18T08:55:59.580Z,78.16
2022-11-18T08:58:05.305Z,77.85
2022-11-18T09:00:16.511Z,78.52
2022-11-18T09:02:26.774Z,78.81
2022-11-18T09:04:32.748Z,78.79
2022-11-18T09:06:46.462Z,78.87
2022-11-18T09:08:53.207Z,78.98
2022-11-18T09:10:58.986Z,79.14
2022-11-18T09:13:25.271Z,78.71
2022-11-18T09:15:36.946Z,78.65
2022-11-18T09:17:42.644Z,78.80
2022-11-18T09:19:48.643Z,79.08
2022-11-18T09:22:02.923Z,79.06
2022-11-18T09:24:17.076Z,79.08
2022-11-18T09:26:26.719Z,77.88
2022-11-18T09:28:36.211Z,78.30
2022-11-18T09:30:46.326Z,78.65
2022-11-18T09:32:58.953Z,79.17
2022-11-18T09:35:05.990Z,79.07
2022-11-18T09:39:16.359Z,79.22
2022-11-18T09:41:46.784Z,78.85
2022-11-18T09:44:16.798Z,78.11
2022-11-18T09:46:36.861Z,77.90
2022-11-18T09:48:55.048Z,77.76
2022-11-18T09:51:01.464Z,77.66
2022-11-18T09:53:22.118Z,78.21
2022-11-18T09:55:33.470Z,77.52
2022-11-18T09:57:46.963Z,77.15
2022-11-18T09:59:54.961Z,77.09
2022-11-18T10:02:29.875Z,77.89
2022-11-18T10:04:35.584Z,77.82
2022-11-18T10:06:42.295Z,77.28
2022-11-18T10:09:16.366Z,77.70
2022-11-18T10:11:31.920Z,78.00
2022-11-18T10:13:58.582Z,77.61
2022-11-18T10:16:30.665Z,76.19
2022-11-18T10:19:00.334Z,76.25
2022-11-18T10:21:27.553Z,76.43
2022-11-18T10:23:54.094Z,76.19
2022-11-18T10:25:59.959Z,76.35
2022-11-18T10:28:29.701Z,76.92
2022-11-18T10:30:35.822Z,76.69
2022-11-18T10:32:58.109Z,76.42
2022-11-18T10:35:04.611Z,76.75
2022-11-18T10:37:38.655Z,77.45
2022-11-18T10:39:56.255Z,77.76
2022-11-18T10:42:09.775Z,77.46
2022-11-18T10:44:40.329Z,77.52
2022-11-18T10:46:46.840Z,77.77
2022-11-18T10:49:19.016Z,77.12
2022-11-18T10:51:28.022Z,77.34
2022-11-18T10:53:39.163Z,76.67
2022-11-18T10:56:01.122Z,76.83
2022-11-18T10:58:22.234Z,76.91
2022-11-18T11:00:48.647Z,77.44
2022-11-18T11:02:56.394Z,77.62
2022-11-18T11:05:07.495Z,77.83
2022-11-18T11:07:32.284Z,77.74
2022-11-18T11:09:45.247Z,77.50
2022-11-18T11:12:04.980Z,77.04
2022-11-18T11:14:26.503Z,76.96
2022-11-18T11:16:50.993Z,77.34
2022-11-18T11:19:05.297Z,77.01
2022-11-18T11:21:17.793Z,77.17
2022-11-18T11:23:28.138Z,77.23
2022-11-18T11:28:30.535Z,77.70
2022-11-18T11:30:49.207Z,77.59
2022-11-18T11:33:24.996Z,77.45
2022-11-18T11:35:45.733Z,77.39
2022-11-18T11:37:58.893Z,77.85
2022-11-18T11:40:29.608Z,77.58
2022-11-18T11:42:59.126Z,77.24
2022-11-18T11:45:27.033Z,76.88
2022-11-18T11:47:57.166Z,76.94
2022-11-18T11:50:25.547Z,76.29
2022-11-18T11:52:48.403Z,76.70
2022-11-18T11:55:18.765Z,75.85
2022-11-18T11:57:48.252Z,75.30
2022-11-18T12:00:08.030Z,75.22
2022-11-18T12:02:56.625Z,75.66
2022-11-18T12:05:24.276Z,75.49
2022-11-18T12:07:41.321Z,75.46
2022-11-18T12:10:23.989Z,75.33
2022-11-18T12:12:47.818Z,75.82
2022-11-18T12:15:07.909Z,75.81
2022-11-18T12:17:29.003Z,75.33
2022-11-18T12:19:42.540Z,75.45
2022-11-18T12:22:07.829Z,76.06
2022-11-18T12:24:37.172Z,75.69
2022-11-18T12:26:43.997Z,75.84
2022-11-18T12:28:50.219Z,75.49
2022-11-18T12:31:39.069Z,75.79
2022-11-18T12:33:48.320Z,76.03
2022-11-18T12:35:55.299Z,75.25
2022-11-18T12:38:06.193Z,76.04
2022-11-18T12:40:33.460Z,76.20
2022-11-18T12:43:00.988Z,76.45
2022-11-18T12:46:03.118Z,76.61
2022-11-18T12:48:46.255Z,76.09
2022-11-18T12:50:54.591Z,76.47
2022-11-18T12:53:00.255Z,76.60
2022-11-18T12:55:21.701Z,77.09
2022-11-18T12:57:33.189Z,76.05
2022-11-18T12:59:41.659Z,75.97
2022-11-18T13:01:48.443Z,76.44
2022-11-18T13:03:55.630Z,76.80
2022-11-18T13:06:09.547Z,76.21
2022-11-18T13:08:21.057Z,76.31
2022-11-18T13:10:35.250Z,75.91
2022-11-18T13:12:41.111Z,75.03
2022-11-18T13:15:01.292Z,74.30
2022-11-18T13:17:43.423Z,73.42
2022-11-18T13:20:01.113Z,73.07
2022-11-18T13:22:31.583Z,72.75
2022-11-18T13:24:48.882Z,73.16
2022-11-18T13:27:04.842Z,73.37
2022-11-18T13:29:38.837Z,72.53
2022-11-18T13:32:05.740Z,72.05
2022-11-18T13:34:21.792Z,71.91
2022-11-18T13:36:29.607Z,72.34
2022-11-18T13:38:35.510Z,71.81
2022-11-18T13:41:04.726Z,72.56
2022-11-18T13:43:15.565Z,72.11
2022-11-18T13:45:23.323Z,72.22
2022-11-18T13:47:44.607Z,72.08
2022-11-18T13:50:03.467Z,72.60
2022-11-18T13:52:16.292Z,72.47
2022-11-18T13:54:30.340Z,72.62
2022-11-18T13:56:37.078Z,72.17
2022-11-18T14:01:26.676Z,71.69
2022-11-18T14:03:39.862Z,72.10
2022-11-18T14:05:45.523Z,72.59
2022-11-18T14:08:09.177Z,72.81
2022-11-18T14:10:19.294Z,72.53
2022-11-18T14:12:29.196Z,71.95
2022-11-18T14:14:41.458Z,72.39
2022-11-18T14:16:47.292Z,72.38
2022-11-18T14:18:55.110Z,71.43
2022-11-18T14:21:04.616Z,71.24
2022-11-18T14:23:20.932Z,70.52
2022-11-18T14:25:34.355Z,70.61
2022-11-18T14:27:45.590Z,70.18
2022-11-18T14:29:55.805Z,70.55
2022-11-18T14:32:23.602Z,70.34
2022-11-18T14:34:31.300Z,70.88
2022-11-18T14:40:49.524Z,70.07
2022-11-18T14:42:55.241Z,69.96
2022-11-18T14:45:01.048Z,69.92
2022-11-18T14:47:27.072Z,69.58
2022-11-18T14:49:34.939Z,69.49
2022-11-18T14:51:40.722Z,69.43
2022-11-18T14:53:49.863Z,69.03
2022-11-18T14:56:01.595Z,69.27
2022-11-18T14:58:07.354Z,69.09
2022-11-18T15:00:19.830Z,69.49
2022-11-18T15:02:26.606Z,68.34
2022-11-18T15:04:32.363Z,69.05
2022-11-18T15:06:40.076Z,68.78
2022-11-18T15:08:51.642Z,69.29
2022-11-18T15:10:57.298Z,69.62
2022-11-18T15:13:04.232Z,69.52
2022-11-18T15:15:11.031Z,69.54
2022-11-18T15:17:22.474Z,69.39
2022-11-18T15:19:32.281Z,69.14
2022-11-18T15:21:38.117Z,69.21
2022-11-18T15:23:44.276Z,69.35
2022-11-18T15:25:53.462Z,69.50
2022-11-18T15:27:59.180Z,68.67
2022-11-18T15:30:05.553Z,68.78
2022-11-18T15:32:18.790Z,68.50
2022-11-18T15:34:25.001Z,68.61
2022-11-18T15:36:37.981Z,68.50
2022-11-18T15:38:56.015Z,67.83
2022-11-18T15:41:04.380Z,67.55
2022-11-18T15:43:10.216Z,67.34
2022-11-18T15:45:16.782Z,67.03
2022-11-18T15:47:22.604Z,67.54
2022-11-18T15:49:28.669Z,67.49
2022-11-18T15:51:35.330Z,67.23
2022-11-18T15:53:41.268Z,66.95
2022-11-18T15:55:47.076Z,67.34
2022-11-18T15:57:56.241Z,66.87
2022-11-18T16:00:08.111Z,66.98
2022-11-18T16:02:18.204Z,66.37
2022-11-18T16:04:24.787Z,66.19
2022-11-18T16:06:31.030Z,65.69
2022-11-18T16:08:36.709Z,65.74
2022-11-18T16:10:55.570Z,66.18
2022-11-18T16:13:03.879Z,65.74
2022-11-18T16:15:29.331Z,66.05
2022-11-18T16:17:38.202Z,65.48
2022-11-18T16:19:44.011Z,65.44
2022-11-18T16:21:53.439Z,64.97
2022-11-18T16:24:05.974Z,65.02
2022-11-18T16:26:11.750Z,65.13
2022-11-18T16:28:20.159Z,65.31
2022-11-18T16:30:39.168Z,65.36
2022-11-18T16:32:44.812Z,65.91
2022-11-18T16:34:51.795Z,65.78
2022-11-18T16:37:02.848Z,65.57
2022-11-18T16:39:32.019Z,65.14
2022-11-18T16:42:08.050Z,65.35
2022-11-18T16:44:19.498Z,64.86
2022-11-18T16:46:25.147Z,65.46
2022-11-18T16:48:30.995Z,65.47
2022-11-18T16:52:05.021Z,65.66
2022-11-18T16:54:20.990Z,65.83
2022-11-18T16:56:29.916Z,66.45
2022-11-18T16:58:42.329Z,65.94
2022-11-18T17:01:16.835Z,65.95
2022-11-18T17:03:14.517Z,65.92
2022-11-18T17:05:20.308Z,66.18
2022-11-18T17:07:31.596Z,66.01
2022-11-18T17:09:41.258Z,65.52
2022-11-18T17:11:47.434Z,64.93
2022-11-18T17:13:58.045Z,65.32
2022-11-18T17:16:07.997Z,64.84
2022-11-18T17:18:13.761Z,64.83
2022-11-18T17:20:22.238Z,65.42
2022-11-18T17:22:30.721Z,66.09
2022-11-18T17:24:36.557Z,65.71
2022-11-18T17:28:10.811Z,65.05
2022-11-18T17:30:18.148Z,65.64
2022-11-18T17:32:23.803Z,65.41
2022-11-18T17:34:29.565Z,65.26
2022-11-18T17:36:36.261Z,65.69
2022-11-18T17:38:45.120Z,65.49
2022-11-18T17:40:57.714Z,65.56
2022-11-18T17:43:01.809Z,66.00
2022-11-18T17:45:12.725Z,66.47
2022-11-18T17:47:21.240Z,66.26
2022-11-18T17:49:27.915Z,65.55
2022-11-18T17:51:34.801Z,65.74
2022-11-18T17:53:43.499Z,65.24
2022-11-18T17:55:50.832Z,65.17
2022-11-18T17:57:59.261Z,65.30
2022-11-18T18:00:05.686Z,64.63
2022-11-18T18:02:18.891Z,64.76
2022-11-18T18:04:24.976Z,64.60
2022-11-18T18:06:30.720Z,65.00
2022-11-18T18:08:37.993Z,65.14
2022-11-18T18:10:46.377Z,65.01
2022-11-18T18:13:04.640Z,65.45
2022-11-18T18:15:12.480Z,65.40
2022-11-18T18:17:21.247Z,65.43
2022-11-18T18:19:28.331Z,65.43
2022-11-18T18:21:35.861Z,65.82
2022-11-18T18:23:41.663Z,65.04
2022-11-18T18:25:47.378Z,65.28
2022-11-18T18:27:54.056Z,64.78
2022-11-18T18:29:59.810Z,64.72
2022-11-18T18:32:06.458Z,65.09
2022-11-18T18:34:15.700Z,64.51
2022-11-18T18:36:25.345Z,64.31
2022-11-18T18:38:34.533Z,64.26
2022-11-18T18:40:41.100Z,63.22
2022-11-18T18:45:01.695Z,64.04
2022-11-18T18:47:08.335Z,64.30
2022-11-18T18:49:20.631Z,64.29
2022-11-18T18:51:26.894Z,64.30
2022-11-18T18:53:34.711Z,64.74
2022-11-18T18:55:44.718Z,64.88
2022-11-18T18:57:50.857Z,64.59
2022-11-18T19:00:00.046Z,64.46
2022-11-18T19:02:06.821Z,64.51
2022-11-18T19:04:16.786Z,63.83
2022-11-18T19:06:52.003Z,64.44
2022-11-18T19:08:52.902Z,64.63
2022-11-18T19:10:58.676Z,64.62
2022-11-18T19:13:02.681Z,64.12
2022-11-18T19:15:14.039Z,64.23
2022-11-18T19:17:19.960Z,64.36
2022-11-18T19:19:42.901Z,64.03
2022-11-18T19:21:50.217Z,64.56
2022-11-18T19:23:56.803Z,64.05
2022-11-18T19:26:03.536Z,63.56
2022-11-18T19:28:09.313Z,63.81
2022-11-18T19:30:17.956Z,63.96
2022-11-18T19:32:24.619Z,64.03
2022-11-18T19:34:30.350Z,64.05
2022-11-18T19:36:37.432Z,64.56
2022-11-18T19:38:44.537Z,62.61
2022-11-18T19:40:50.490Z,62.94
2022-11-18T19:42:56.867Z,63.24
2022-11-18T19:45:03.481Z,63.58
2022-11-18T19:47:11.920Z,62.92
2022-11-18T19:49:18.070Z,63.64
2022-11-18T19:51:26.107Z,63.29
2022-11-18T19:53:39.264Z,62.63
2022-11-18T19:55:45.016Z,62.88
2022-11-18T19:57:51.731Z,62.58
2022-11-18T19:59:57.545Z,62.66
2022-11-18T20:02:03.705Z,62.71
2022-11-18T20:04:12.962Z,62.76
2022-11-18T20:06:20.659Z,62.47
2022-11-18T20:08:28.233Z,62.39
2022-11-18T20:10:35.090Z,62.44
2022-11-18T20:12:40.942Z,62.82
2022-11-18T20:14:46.698Z,62.76
2022-11-18T20:16:54.599Z,62.87
2022-11-18T20:19:09.315Z,62.39
2022-11-18T20:21:23.037Z,62.89
2022-11-18T20:23:29.513Z,63.12
2022-11-18T20:25:35.287Z,62.29
2022-11-18T20:27:41.166Z,62.55
2022-11-18T20:29:48.448Z,62.62
2022-11-18T20:31:55.287Z,62.84
2022-11-18T20:34:01.107Z,62.40
2022-11-18T20:36:10.501Z,62.19
2022-11-18T20:38:18.910Z,61.49
2022-11-18T20:40:24.652Z,61.29
2022-11-18T20:42:44.221Z,61.81
2022-11-18T20:44:50.334Z,60.72
2022-11-18T20:46:56.072Z,60.97
2022-11-18T20:49:19.541Z,60.96
2022-11-18T20:51:29.061Z,61.22
2022-11-18T20:53:38.943Z,60.75
2022-11-18T20:55:44.917Z,60.62
2022-11-18T20:57:51.663Z,59.69
2022-11-18T20:59:57.497Z,60.19
2022-11-18T21:02:03.488Z,59.41
2022-11-18T21:04:10.071Z,59.37
2022-11-18T21:06:17.880Z,60.01
2022-11-18T21:08:23.706Z,59.44
2022-11-18T21:10:33.568Z,59.55
2022-11-18T21:12:59.368Z,59.89
2022-11-18T21:15:02.914Z,60.17
2022-11-18T21:17:09.539Z,59.09
2022-11-18T21:19:16.807Z,59.03
2022-11-18T21:21:40.689Z,59.46
2022-11-18T21:23:47.356Z,58.42
2022-11-18T21:25:55.940Z,58.64
2022-11-18T21:28:02.093Z,59.39
2022-11-18T21:30:10.817Z,58.99
2022-11-18T21:32:19.067Z,58.33
2022-11-18T21:34:25.627Z,57.83
2022-11-18T21:36:32.654Z,58.16
2022-11-18T21:38:38.445Z,57.90
2022-11-18T21:40:44.297Z,57.58
2022-11-18T21:42:58.128Z,58.10
2022-11-18T21:45:03.946Z,57.84
2022-11-18T21:47:09.650Z,58.08
2022-11-18T21:49:16.612Z,57.59
2022-11-18T21:51:25.462Z,57.53
2022-11-18T21:53:32.069Z,57.36
2022-11-18T21:55:38.629Z,57.47
2022-11-18T21:57:44.612Z,57.73
2022-11-18T21:59:56.296Z,57.50
2022-11-18T22:02:02.833Z,56.64
2022-11-18T22:04:29.077Z,56.85
2022-11-18T22:06:37.153Z,57.19
2022-11-18T22:08:45.391Z,58.00
2022-11-18T22:10:51.144Z,58.85
2022-11-18T22:12:56.939Z,59.08
2022-11-18T22:15:06.273Z,59.27
2022-11-18T22:17:12.521Z,59.81
2022-11-18T22:19:18.170Z,60.35
2022-11-18T22:21:26.672Z,60.86
2022-11-18T22:23:35.443Z,61.01
2022-11-18T22:25:41.244Z,61.70
2022-11-18T22:27:47.748Z,61.77
2022-11-18T22:29:53.498Z,61.52
2022-11-18T22:32:02.070Z,62.00
2022-11-18T22:34:08.726Z,61.97
2022-11-18T22:36:17.998Z,61.72
2022-11-18T22:38:23.704Z,61.60
2022-11-18T22:40:30.362Z,61.63
2022-11-18T22:42:48.337Z,61.84
2022-11-18T22:44:54.090Z,61.72
2022-11-18T22:47:03.293Z,61.49
2022-11-18T22:49:10.921Z,61.84
2022-11-18T22:51:16.690Z,61.60
2022-11-18T22:53:23.334Z,61.44
2022-11-18T22:55:29.094Z,61.94
2022-11-18T22:57:36.962Z,62.21
2022-11-18T22:59:43.584Z,61.93
2022-11-18T23:01:49.350Z,62.28
2022-11-18T23:03:57.723Z,62.40
2022-11-18T23:06:06.236Z,62.54
2022-11-18T23:08:11.938Z,62.37
2022-11-18T23:10:17.896Z,63.25
2022-11-18T23:12:36.897Z,63.11
2022-11-18T23:14:42.690Z,62.73
2022-11-18T23:16:48.634Z,62.87
2022-11-18T23:18:57.728Z,62.81
2022-11-18T23:21:05.891Z,63.10
2022-11-18T23:23:11.616Z,62.87
2022-11-18T23:25:18.441Z,62.96
2022-11-18T23:27:24.132Z,63.05
2022-11-18T23:29:30.051Z,62.78
2022-11-18T23:31:37.097Z,63.06
2022-11-18T23:33:44.570Z,63.13
2022-11-18T23:35:57.872Z,63.45
2022-11-18T23:38:04.406Z,63.53
2022-11-18T23:40:12.536Z,63.35
2022-11-18T23:42:18.217Z,63.64
2022-11-18T23:44:45.032Z,63.41
2022-11-18T23:46:50.730Z,63.85
2022-11-18T23:48:57.059Z,63.54
2022-11-18T23:51:09.642Z,63.29
2022-11-18T23:53:15.378Z,63.88
2022-11-18T23:55:21.114Z,63.56
2022-11-18T23:57:30.545Z,63.93
2022-11-18T23:59:36.756Z,63.60
